sensor_id;sensor_type;location;lat;lon;timestamp;P1;durP1;ratioP1;P2;durP2;ratioP2
56141;SDS011;42018;48.588;10.836;2022-08-19T00:00:15;5.40;;;4.90;;
56141;SDS011;42018;48.588;10.836;2022-08-19T00:03:02;4.57;;;4.10;;
56141;SDS011;42018;48.588;10.836;2022-08-19T00:05:48;5.55;;;4.97;;
56141;SDS011;42018;48.588;10.836;2022-08-19T00:08:33;5.18;;;4.50;;
56141;SDS011;42018;48.588;10.836;2022-08-19T00:11:19;5.82;;;5.25;;
56141;SDS011;42018;48.588;10.836;2022-08-19T00:14:06;5.38;;;4.88;;
56141;SDS011;42018;48.588;10.836;2022-08-19T00:16:54;5.63;;;5.00;;
56141;SDS011;42018;48.588;10.836;2022-08-19T00:19:40;5.38;;;4.88;;
56141;SDS011;42018;48.588;10.836;2022-08-19T00:22:25;5.53;;;5.03;;
56141;SDS011;42018;48.588;10.836;2022-08-19T00:25:13;5.53;;;5.03;;
56141;SDS011;42018;48.588;10.836;2022-08-19T00:28:00;5.88;;;5.28;;
56141;SDS011;42018;48.588;10.836;2022-08-19T00:30:45;6.55;;;5.55;;
56141;SDS011;42018;48.588;10.836;2022-08-19T00:33:31;5.65;;;5.10;;
56141;SDS011;42018;48.588;10.836;2022-08-19T00:36:18;5.60;;;5.10;;
56141;SDS011;42018;48.588;10.836;2022-08-19T00:39:03;6.10;;;5.50;;
56141;SDS011;42018;48.588;10.836;2022-08-19T00:41:50;6.20;;;5.60;;
56141;SDS011;42018;48.588;10.836;2022-08-19T00:44:36;5.63;;;5.13;;
56141;SDS011;42018;48.588;10.836;2022-08-19T00:47:21;6.00;;;5.50;;
56141;SDS011;42018;48.588;10.836;2022-08-19T00:50:07;6.53;;;5.50;;
56141;SDS011;42018;48.588;10.836;2022-08-19T00:52:54;5.63;;;5.03;;
56141;SDS011;42018;48.588;10.836;2022-08-19T00:55:40;6.10;;;5.50;;
56141;SDS011;42018;48.588;10.836;2022-08-19T00:58:31;6.25;;;5.65;;
56141;SDS011;42018;48.588;10.836;2022-08-19T01:01:19;6.10;;;5.50;;
56141;SDS011;42018;48.588;10.836;2022-08-19T01:04:04;6.93;;;6.32;;
56141;SDS011;42018;48.588;10.836;2022-08-19T01:06:50;6.30;;;5.70;;
56141;SDS011;42018;48.588;10.836;2022-08-19T01:09:35;6.10;;;5.50;;
56141;SDS011;42018;48.588;10.836;2022-08-19T01:12:21;6.15;;;5.55;;
56141;SDS011;42018;48.588;10.836;2022-08-19T01:15:08;5.82;;;5.22;;
56141;SDS011;42018;48.588;10.836;2022-08-19T01:17:57;6.45;;;5.85;;
56141;SDS011;42018;48.588;10.836;2022-08-19T01:20:46;5.95;;;5.45;;
56141;SDS011;42018;48.588;10.836;2022-08-19T01:23:32;6.05;;;5.45;;
56141;SDS011;42018;48.588;10.836;2022-08-19T01:26:29;7.47;;;6.05;;
56141;SDS011;42018;48.588;10.836;2022-08-19T01:29:15;5.70;;;5.20;;
56141;SDS011;42018;48.588;10.836;2022-08-19T01:32:00;6.03;;;5.35;;
56141;SDS011;42018;48.588;10.836;2022-08-19T01:34:46;6.13;;;5.53;;
56141;SDS011;42018;48.588;10.836;2022-08-19T01:37:41;6.15;;;5.55;;
56141;SDS011;42018;48.588;10.836;2022-08-19T01:40:31;6.13;;;5.53;;
56141;SDS011;42018;48.588;10.836;2022-08-19T01:43:18;6.18;;;5.57;;
56141;SDS011;42018;48.588;10.836;2022-08-19T01:46:04;5.97;;;5.38;;
56141;SDS011;42018;48.588;10.836;2022-08-19T01:48:49;5.95;;;5.38;;
56141;SDS011;42018;48.588;10.836;2022-08-19T01:51:35;6.60;;;5.88;;
56141;SDS011;42018;48.588;10.836;2022-08-19T01:54:21;6.50;;;5.90;;
56141;SDS011;42018;48.588;10.836;2022-08-19T01:57:10;5.80;;;5.20;;
56141;SDS011;42018;48.588;10.836;2022-08-19T01:59:57;5.80;;;5.20;;
56141;SDS011;42018;48.588;10.836;2022-08-19T02:02:42;6.20;;;5.60;;
56141;SDS011;42018;48.588;10.836;2022-08-19T02:05:28;6.22;;;5.63;;
56141;SDS011;42018;48.588;10.836;2022-08-19T02:08:14;6.18;;;5.57;;
56141;SDS011;42018;48.588;10.836;2022-08-19T02:10:59;6.55;;;5.85;;
56141;SDS011;42018;48.588;10.836;2022-08-19T02:13:44;6.32;;;5.72;;
56141;SDS011;42018;48.588;10.836;2022-08-19T02:16:30;6.70;;;6.10;;
56141;SDS011;42018;48.588;10.836;2022-08-19T02:19:15;6.28;;;5.68;;
56141;SDS011;42018;48.588;10.836;2022-08-19T02:22:01;7.15;;;6.47;;
56141;SDS011;42018;48.588;10.836;2022-08-19T02:24:46;7.18;;;6.47;;
56141;SDS011;42018;48.588;10.836;2022-08-19T02:27:32;7.13;;;6.45;;
56141;SDS011;42018;48.588;10.836;2022-08-19T02:30:18;7.43;;;6.72;;
56141;SDS011;42018;48.588;10.836;2022-08-19T02:33:04;7.10;;;6.40;;
56141;SDS011;42018;48.588;10.836;2022-08-19T02:35:50;7.10;;;6.40;;
56141;SDS011;42018;48.588;10.836;2022-08-19T02:38:35;7.18;;;6.53;;
56141;SDS011;42018;48.588;10.836;2022-08-19T02:41:23;7.82;;;7.13;;
56141;SDS011;42018;48.588;10.836;2022-08-19T02:44:10;7.65;;;6.95;;
56141;SDS011;42018;48.588;10.836;2022-08-19T02:46:57;7.93;;;7.22;;
56141;SDS011;42018;48.588;10.836;2022-08-19T02:49:42;8.30;;;7.50;;
56141;SDS011;42018;48.588;10.836;2022-08-19T02:52:28;8.30;;;7.50;;
56141;SDS011;42018;48.588;10.836;2022-08-19T02:55:13;8.00;;;7.30;;
56141;SDS011;42018;48.588;10.836;2022-08-19T02:58:00;8.07;;;7.38;;
56141;SDS011;42018;48.588;10.836;2022-08-19T03:00:46;8.57;;;7.88;;
56141;SDS011;42018;48.588;10.836;2022-08-19T03:03:37;7.97;;;7.22;;
56141;SDS011;42018;48.588;10.836;2022-08-19T03:06:23;7.80;;;6.93;;
56141;SDS011;42018;48.588;10.836;2022-08-19T03:09:09;8.32;;;7.63;;
56141;SDS011;42018;48.588;10.836;2022-08-19T03:11:55;8.18;;;7.47;;
56141;SDS011;42018;48.588;10.836;2022-08-19T03:14:40;8.05;;;7.35;;
56141;SDS011;42018;48.588;10.836;2022-08-19T03:17:26;8.40;;;7.70;;
56141;SDS011;42018;48.588;10.836;2022-08-19T03:20:11;7.95;;;7.25;;
56141;SDS011;42018;48.588;10.836;2022-08-19T03:22:57;7.95;;;7.25;;
56141;SDS011;42018;48.588;10.836;2022-08-19T03:25:43;8.48;;;7.70;;
56141;SDS011;42018;48.588;10.836;2022-08-19T03:28:31;6.70;;;6.10;;
56141;SDS011;42018;48.588;10.836;2022-08-19T03:31:19;8.50;;;7.78;;
56141;SDS011;42018;48.588;10.836;2022-08-19T03:34:10;6.95;;;6.35;;
56141;SDS011;42018;48.588;10.836;2022-08-19T03:37:06;6.90;;;6.30;;
56141;SDS011;42018;48.588;10.836;2022-08-19T03:39:54;7.65;;;6.95;;
56141;SDS011;42018;48.588;10.836;2022-08-19T03:42:40;7.57;;;6.88;;
56141;SDS011;42018;48.588;10.836;2022-08-19T03:45:27;6.95;;;6.35;;
56141;SDS011;42018;48.588;10.836;2022-08-19T03:48:12;6.97;;;6.38;;
56141;SDS011;42018;48.588;10.836;2022-08-19T03:50:58;8.10;;;7.38;;
56141;SDS011;42018;48.588;10.836;2022-08-19T03:53:44;6.88;;;6.22;;
56141;SDS011;42018;48.588;10.836;2022-08-19T03:56:29;7.60;;;6.90;;
56141;SDS011;42018;48.588;10.836;2022-08-19T03:59:20;7.80;;;7.10;;
56141;SDS011;42018;48.588;10.836;2022-08-19T04:02:12;7.90;;;7.20;;
56141;SDS011;42018;48.588;10.836;2022-08-19T04:04:57;6.97;;;6.35;;
56141;SDS011;42018;48.588;10.836;2022-08-19T04:07:43;7.35;;;6.65;;
56141;SDS011;42018;48.588;10.836;2022-08-19T04:10:28;6.97;;;6.38;;
56141;SDS011;42018;48.588;10.836;2022-08-19T04:13:17;8.15;;;7.35;;
56141;SDS011;42018;48.588;10.836;2022-08-19T04:16:03;8.18;;;7.43;;
56141;SDS011;42018;48.588;10.836;2022-08-19T04:18:50;6.93;;;6.32;;
56141;SDS011;42018;48.588;10.836;2022-08-19T04:21:35;8.73;;;7.82;;
56141;SDS011;42018;48.588;10.836;2022-08-19T04:24:21;7.90;;;7.20;;
56141;SDS011;42018;48.588;10.836;2022-08-19T04:27:07;7.43;;;6.72;;
56141;SDS011;42018;48.588;10.836;2022-08-19T04:29:52;7.82;;;7.13;;
56141;SDS011;42018;48.588;10.836;2022-08-19T04:32:38;7.82;;;7.13;;
56141;SDS011;42018;48.588;10.836;2022-08-19T04:35:23;8.07;;;7.38;;
56141;SDS011;42018;48.588;10.836;2022-08-19T04:38:10;7.43;;;6.75;;
56141;SDS011;42018;48.588;10.836;2022-08-19T04:40:56;8.18;;;7.40;;
56141;SDS011;42018;48.588;10.836;2022-08-19T04:44:00;7.90;;;7.20;;
56141;SDS011;42018;48.588;10.836;2022-08-19T04:46:48;7.70;;;6.93;;
56141;SDS011;42018;48.588;10.836;2022-08-19T04:49:34;7.40;;;6.80;;
56141;SDS011;42018;48.588;10.836;2022-08-19T04:52:20;7.53;;;6.82;;
56141;SDS011;42018;48.588;10.836;2022-08-19T04:55:05;7.00;;;6.40;;
56141;SDS011;42018;48.588;10.836;2022-08-19T04:57:51;9.05;;;8.25;;
56141;SDS011;42018;48.588;10.836;2022-08-19T05:00:37;8.02;;;7.32;;
56141;SDS011;42018;48.588;10.836;2022-08-19T05:03:24;8.00;;;7.30;;
56141;SDS011;42018;48.588;10.836;2022-08-19T05:06:11;8.88;;;8.07;;
56141;SDS011;42018;48.588;10.836;2022-08-19T05:08:59;8.50;;;7.70;;
56141;SDS011;42018;48.588;10.836;2022-08-19T05:11:46;7.90;;;7.20;;
56141;SDS011;42018;48.588;10.836;2022-08-19T05:14:31;8.35;;;7.55;;
56141;SDS011;42018;48.588;10.836;2022-08-19T05:17:16;8.23;;;7.53;;
56141;SDS011;42018;48.588;10.836;2022-08-19T05:20:03;9.10;;;8.40;;
56141;SDS011;42018;48.588;10.836;2022-08-19T05:23:10;8.93;;;8.10;;
56141;SDS011;42018;48.588;10.836;2022-08-19T05:25:56;7.97;;;7.28;;
56141;SDS011;42018;48.588;10.836;2022-08-19T05:28:41;8.45;;;7.65;;
56141;SDS011;42018;48.588;10.836;2022-08-19T05:31:26;8.02;;;7.32;;
56141;SDS011;42018;48.588;10.836;2022-08-19T05:34:12;9.02;;;8.23;;
56141;SDS011;42018;48.588;10.836;2022-08-19T05:36:58;9.68;;;8.88;;
56141;SDS011;42018;48.588;10.836;2022-08-19T05:39:44;9.40;;;8.60;;
56141;SDS011;42018;48.588;10.836;2022-08-19T05:42:29;9.40;;;8.60;;
56141;SDS011;42018;48.588;10.836;2022-08-19T05:45:15;9.05;;;8.20;;
56141;SDS011;42018;48.588;10.836;2022-08-19T05:48:00;9.68;;;8.88;;
56141;SDS011;42018;48.588;10.836;2022-08-19T05:50:46;10.48;;;9.57;;
56141;SDS011;42018;48.588;10.836;2022-08-19T05:53:35;9.10;;;8.27;;
56141;SDS011;42018;48.588;10.836;2022-08-19T05:56:20;11.07;;;10.15;;
56141;SDS011;42018;48.588;10.836;2022-08-19T05:59:07;10.65;;;9.75;;
56141;SDS011;42018;48.588;10.836;2022-08-19T06:01:56;10.45;;;9.45;;
56141;SDS011;42018;48.588;10.836;2022-08-19T06:04:41;10.35;;;9.40;;
56141;SDS011;42018;48.588;10.836;2022-08-19T06:07:30;10.52;;;9.60;;
56141;SDS011;42018;48.588;10.836;2022-08-19T06:10:15;11.10;;;10.10;;
56141;SDS011;42018;48.588;10.836;2022-08-19T06:13:00;10.82;;;9.93;;
56141;SDS011;42018;48.588;10.836;2022-08-19T06:15:46;11.02;;;10.13;;
56141;SDS011;42018;48.588;10.836;2022-08-19T06:18:32;11.65;;;10.65;;
56141;SDS011;42018;48.588;10.836;2022-08-19T06:21:19;12.40;;;11.30;;
56141;SDS011;42018;48.588;10.836;2022-08-19T06:24:07;12.68;;;11.57;;
56141;SDS011;42018;48.588;10.836;2022-08-19T06:26:55;13.07;;;11.95;;
56141;SDS011;42018;48.588;10.836;2022-08-19T06:29:41;10.75;;;9.85;;
56141;SDS011;42018;48.588;10.836;2022-08-19T06:32:27;12.00;;;11.00;;
56141;SDS011;42018;48.588;10.836;2022-08-19T06:35:12;12.68;;;11.48;;
56141;SDS011;42018;48.588;10.836;2022-08-19T06:37:59;11.95;;;10.95;;
56141;SDS011;42018;48.588;10.836;2022-08-19T06:40:44;13.15;;;12.05;;
56141;SDS011;42018;48.588;10.836;2022-08-19T06:43:30;12.45;;;11.45;;
56141;SDS011;42018;48.588;10.836;2022-08-19T06:46:16;11.48;;;10.48;;
56141;SDS011;42018;48.588;10.836;2022-08-19T06:49:04;12.32;;;11.30;;
56141;SDS011;42018;48.588;10.836;2022-08-19T06:51:51;11.68;;;10.68;;
56141;SDS011;42018;48.588;10.836;2022-08-19T06:54:36;13.60;;;12.30;;
56141;SDS011;42018;48.588;10.836;2022-08-19T06:57:23;11.43;;;10.45;;
56141;SDS011;42018;48.588;10.836;2022-08-19T07:00:09;12.93;;;11.82;;
56141;SDS011;42018;48.588;10.836;2022-08-19T07:02:58;12.50;;;11.40;;
56141;SDS011;42018;48.588;10.836;2022-08-19T07:05:45;13.50;;;12.40;;
56141;SDS011;42018;48.588;10.836;2022-08-19T07:08:30;12.85;;;11.75;;
56141;SDS011;42018;48.588;10.836;2022-08-19T07:11:17;13.38;;;12.18;;
56141;SDS011;42018;48.588;10.836;2022-08-19T07:14:04;13.98;;;12.77;;
56141;SDS011;42018;48.588;10.836;2022-08-19T07:16:51;12.95;;;11.85;;
56141;SDS011;42018;48.588;10.836;2022-08-19T07:19:39;13.77;;;12.48;;
56141;SDS011;42018;48.588;10.836;2022-08-19T07:22:28;13.15;;;12.02;;
56141;SDS011;42018;48.588;10.836;2022-08-19T07:25:13;12.57;;;11.52;;
56141;SDS011;42018;48.588;10.836;2022-08-19T07:27:59;12.85;;;11.75;;
56141;SDS011;42018;48.588;10.836;2022-08-19T07:30:44;13.40;;;12.20;;
56141;SDS011;42018;48.588;10.836;2022-08-19T07:33:29;14.40;;;13.13;;
56141;SDS011;42018;48.588;10.836;2022-08-19T07:36:18;13.00;;;11.90;;
56141;SDS011;42018;48.588;10.836;2022-08-19T07:39:08;12.52;;;11.43;;
56141;SDS011;42018;48.588;10.836;2022-08-19T07:41:58;13.40;;;12.10;;
56141;SDS011;42018;48.588;10.836;2022-08-19T07:44:45;13.73;;;12.52;;
56141;SDS011;42018;48.588;10.836;2022-08-19T07:47:31;13.70;;;12.50;;
56141;SDS011;42018;48.588;10.836;2022-08-19T07:50:18;13.80;;;12.65;;
56141;SDS011;42018;48.588;10.836;2022-08-19T07:53:05;13.70;;;12.50;;
56141;SDS011;42018;48.588;10.836;2022-08-19T07:55:50;14.63;;;13.32;;
56141;SDS011;42018;48.588;10.836;2022-08-19T07:58:37;14.13;;;12.95;;
56141;SDS011;42018;48.588;10.836;2022-08-19T08:01:25;13.85;;;12.73;;
56141;SDS011;42018;48.588;10.836;2022-08-19T08:04:12;12.43;;;11.43;;
56141;SDS011;42018;48.588;10.836;2022-08-19T08:07:17;13.65;;;12.45;;
56141;SDS011;42018;48.588;10.836;2022-08-19T08:10:21;14.77;;;13.57;;
56141;SDS011;42018;48.588;10.836;2022-08-19T08:13:07;12.48;;;11.38;;
56141;SDS011;42018;48.588;10.836;2022-08-19T08:15:52;13.52;;;12.32;;
56141;SDS011;42018;48.588;10.836;2022-08-19T08:18:38;14.57;;;13.38;;
56141;SDS011;42018;48.588;10.836;2022-08-19T08:21:26;14.45;;;13.25;;
56141;SDS011;42018;48.588;10.836;2022-08-19T08:24:11;13.05;;;11.95;;
56141;SDS011;42018;48.588;10.836;2022-08-19T08:26:58;13.93;;;12.63;;
56141;SDS011;42018;48.588;10.836;2022-08-19T08:29:44;14.90;;;13.65;;
56141;SDS011;42018;48.588;10.836;2022-08-19T08:32:30;13.88;;;12.68;;
56141;SDS011;42018;48.588;10.836;2022-08-19T08:35:16;14.32;;;13.02;;
56141;SDS011;42018;48.588;10.836;2022-08-19T08:38:04;15.23;;;13.93;;
56141;SDS011;42018;48.588;10.836;2022-08-19T08:43:50;14.75;;;13.45;;
56141;SDS011;42018;48.588;10.836;2022-08-19T08:46:48;14.60;;;13.30;;
56141;SDS011;42018;48.588;10.836;2022-08-19T08:49:43;14.63;;;13.32;;
56141;SDS011;42018;48.588;10.836;2022-08-19T08:52:34;14.20;;;12.90;;
56141;SDS011;42018;48.588;10.836;2022-08-19T08:55:23;14.68;;;13.38;;
56141;SDS011;42018;48.588;10.836;2022-08-19T08:58:13;14.02;;;12.82;;
56141;SDS011;42018;48.588;10.836;2022-08-19T09:01:05;13.77;;;12.65;;
56141;SDS011;42018;48.588;10.836;2022-08-19T09:03:51;15.18;;;13.80;;
56141;SDS011;42018;48.588;10.836;2022-08-19T09:09:40;14.98;;;13.68;;
56141;SDS011;42018;48.588;10.836;2022-08-19T09:15:28;15.95;;;14.65;;
56141;SDS011;42018;48.588;10.836;2022-08-19T09:18:20;15.10;;;13.80;;
56141;SDS011;42018;48.588;10.836;2022-08-19T09:21:05;15.85;;;14.55;;
56141;SDS011;42018;48.588;10.836;2022-08-19T09:23:52;15.02;;;13.73;;
56141;SDS011;42018;48.588;10.836;2022-08-19T09:26:38;15.13;;;13.77;;
56141;SDS011;42018;48.588;10.836;2022-08-19T09:29:24;15.48;;;14.18;;
56141;SDS011;42018;48.588;10.836;2022-08-19T09:32:09;15.63;;;14.23;;
56141;SDS011;42018;48.588;10.836;2022-08-19T09:34:55;14.70;;;13.40;;
56141;SDS011;42018;48.588;10.836;2022-08-19T09:37:42;15.60;;;14.27;;
56141;SDS011;42018;48.588;10.836;2022-08-19T09:40:28;15.55;;;14.25;;
56141;SDS011;42018;48.588;10.836;2022-08-19T09:43:15;15.05;;;13.70;;
56141;SDS011;42018;48.588;10.836;2022-08-19T09:46:01;14.38;;;13.07;;
56141;SDS011;42018;48.588;10.836;2022-08-19T09:51:37;14.80;;;13.50;;
56141;SDS011;42018;48.588;10.836;2022-08-19T09:54:22;15.35;;;13.95;;
56141;SDS011;42018;48.588;10.836;2022-08-19T09:57:08;15.13;;;13.82;;
56141;SDS011;42018;48.588;10.836;2022-08-19T09:59:54;14.70;;;13.40;;
56141;SDS011;42018;48.588;10.836;2022-08-19T10:02:39;15.52;;;14.23;;
56141;SDS011;42018;48.588;10.836;2022-08-19T10:05:25;14.40;;;13.20;;
56141;SDS011;42018;48.588;10.836;2022-08-19T10:08:31;13.32;;;12.23;;
56141;SDS011;42018;48.588;10.836;2022-08-19T10:11:19;14.73;;;13.40;;
56141;SDS011;42018;48.588;10.836;2022-08-19T10:14:06;15.10;;;13.80;;
56141;SDS011;42018;48.588;10.836;2022-08-19T10:16:51;14.48;;;13.27;;
56141;SDS011;42018;48.588;10.836;2022-08-19T10:19:37;14.43;;;13.20;;
56141;SDS011;42018;48.588;10.836;2022-08-19T10:22:23;14.68;;;13.38;;
56141;SDS011;42018;48.588;10.836;2022-08-19T10:25:08;14.82;;;13.50;;
56141;SDS011;42018;48.588;10.836;2022-08-19T10:27:54;15.70;;;14.30;;
56141;SDS011;42018;48.588;10.836;2022-08-19T10:30:39;15.35;;;13.95;;
56141;SDS011;42018;48.588;10.836;2022-08-19T10:33:25;14.60;;;13.35;;
56141;SDS011;42018;48.588;10.836;2022-08-19T10:36:12;14.88;;;13.52;;
56141;SDS011;42018;48.588;10.836;2022-08-19T10:39:05;14.90;;;13.60;;
56141;SDS011;42018;48.588;10.836;2022-08-19T10:41:52;14.88;;;13.57;;
56141;SDS011;42018;48.588;10.836;2022-08-19T10:44:37;14.23;;;13.05;;
56141;SDS011;42018;48.588;10.836;2022-08-19T10:47:23;15.45;;;14.05;;
56141;SDS011;42018;48.588;10.836;2022-08-19T10:50:08;14.55;;;13.25;;
56141;SDS011;42018;48.588;10.836;2022-08-19T10:53:12;14.65;;;13.35;;
56141;SDS011;42018;48.588;10.836;2022-08-19T10:55:58;15.40;;;14.02;;
56141;SDS011;42018;48.588;10.836;2022-08-19T10:59:02;14.93;;;13.63;;
56141;SDS011;42018;48.588;10.836;2022-08-19T11:01:49;14.80;;;13.50;;
56141;SDS011;42018;48.588;10.836;2022-08-19T11:04:39;15.82;;;14.43;;
56141;SDS011;42018;48.588;10.836;2022-08-19T11:07:25;15.18;;;13.88;;
56141;SDS011;42018;48.588;10.836;2022-08-19T11:10:12;15.88;;;14.48;;
56141;SDS011;42018;48.588;10.836;2022-08-19T11:12:59;14.85;;;13.55;;
56141;SDS011;42018;48.588;10.836;2022-08-19T11:15:45;15.70;;;14.30;;
56141;SDS011;42018;48.588;10.836;2022-08-19T11:18:32;14.00;;;12.70;;
56141;SDS011;42018;48.588;10.836;2022-08-19T11:21:21;15.23;;;13.82;;
56141;SDS011;42018;48.588;10.836;2022-08-19T11:24:11;14.82;;;13.52;;
56141;SDS011;42018;48.588;10.836;2022-08-19T11:27:01;15.65;;;14.35;;
56141;SDS011;42018;48.588;10.836;2022-08-19T11:29:50;16.33;;;15.00;;
56141;SDS011;42018;48.588;10.836;2022-08-19T11:32:37;14.70;;;13.40;;
56141;SDS011;42018;48.588;10.836;2022-08-19T11:35:22;15.15;;;13.77;;
56141;SDS011;42018;48.588;10.836;2022-08-19T11:38:08;14.95;;;13.60;;
56141;SDS011;42018;48.588;10.836;2022-08-19T11:41:00;13.85;;;12.65;;
56141;SDS011;42018;48.588;10.836;2022-08-19T11:43:48;14.90;;;13.50;;
56141;SDS011;42018;48.588;10.836;2022-08-19T11:46:35;14.10;;;12.90;;
56141;SDS011;42018;48.588;10.836;2022-08-19T11:49:22;14.20;;;13.00;;
56141;SDS011;42018;48.588;10.836;2022-08-19T11:52:07;14.85;;;13.48;;
56141;SDS011;42018;48.588;10.836;2022-08-19T11:54:53;14.80;;;13.50;;
56141;SDS011;42018;48.588;10.836;2022-08-19T11:57:39;14.60;;;13.40;;
56141;SDS011;42018;48.588;10.836;2022-08-19T12:00:26;14.02;;;12.82;;
56141;SDS011;42018;48.588;10.836;2022-08-19T12:03:12;13.52;;;12.30;;
56141;SDS011;42018;48.588;10.836;2022-08-19T12:05:58;13.90;;;12.70;;
56141;SDS011;42018;48.588;10.836;2022-08-19T12:08:43;14.30;;;13.10;;
56141;SDS011;42018;48.588;10.836;2022-08-19T12:11:29;15.23;;;13.90;;
56141;SDS011;42018;48.588;10.836;2022-08-19T12:14:15;13.60;;;12.40;;
56141;SDS011;42018;48.588;10.836;2022-08-19T12:17:01;13.70;;;12.48;;
56141;SDS011;42018;48.588;10.836;2022-08-19T12:19:49;14.23;;;12.93;;
56141;SDS011;42018;48.588;10.836;2022-08-19T12:22:35;14.20;;;13.00;;
56141;SDS011;42018;48.588;10.836;2022-08-19T12:25:21;13.70;;;12.57;;
56141;SDS011;42018;48.588;10.836;2022-08-19T12:28:06;13.75;;;12.57;;
56141;SDS011;42018;48.588;10.836;2022-08-19T12:30:51;14.18;;;12.98;;
56141;SDS011;42018;48.588;10.836;2022-08-19T12:33:37;14.30;;;13.00;;
56141;SDS011;42018;48.588;10.836;2022-08-19T12:36:23;15.43;;;14.02;;
56141;SDS011;42018;48.588;10.836;2022-08-19T12:39:09;14.35;;;13.05;;
56141;SDS011;42018;48.588;10.836;2022-08-19T12:41:55;14.20;;;13.00;;
56141;SDS011;42018;48.588;10.836;2022-08-19T12:44:41;13.93;;;12.63;;
56141;SDS011;42018;48.588;10.836;2022-08-19T12:47:27;14.20;;;12.98;;
56141;SDS011;42018;48.588;10.836;2022-08-19T12:50:13;13.93;;;12.73;;
56141;SDS011;42018;48.588;10.836;2022-08-19T12:52:58;13.52;;;12.32;;
56141;SDS011;42018;48.588;10.836;2022-08-19T12:55:43;13.98;;;12.77;;
56141;SDS011;42018;48.588;10.836;2022-08-19T12:58:29;14.10;;;12.90;;
56141;SDS011;42018;48.588;10.836;2022-08-19T13:01:15;13.43;;;12.23;;
56141;SDS011;42018;48.588;10.836;2022-08-19T13:04:02;13.25;;;12.15;;
56141;SDS011;42018;48.588;10.836;2022-08-19T13:06:49;13.63;;;12.25;;
56141;SDS011;42018;48.588;10.836;2022-08-19T13:09:34;14.32;;;13.07;;
56141;SDS011;42018;48.588;10.836;2022-08-19T13:12:20;13.32;;;12.23;;
56141;SDS011;42018;48.588;10.836;2022-08-19T13:15:06;12.57;;;11.50;;
56141;SDS011;42018;48.588;10.836;2022-08-19T13:17:53;13.35;;;12.15;;
56141;SDS011;42018;48.588;10.836;2022-08-19T13:20:40;13.82;;;12.63;;
56141;SDS011;42018;48.588;10.836;2022-08-19T13:23:28;13.30;;;12.10;;
56141;SDS011;42018;48.588;10.836;2022-08-19T13:26:13;13.45;;;12.25;;
56141;SDS011;42018;48.588;10.836;2022-08-19T13:29:00;13.80;;;12.60;;
56141;SDS011;42018;48.588;10.836;2022-08-19T13:32:04;13.68;;;12.48;;
56141;SDS011;42018;48.588;10.836;2022-08-19T13:35:08;12.85;;;11.73;;
56141;SDS011;42018;48.588;10.836;2022-08-19T13:37:54;13.80;;;12.50;;
56141;SDS011;42018;48.588;10.836;2022-08-19T13:40:39;12.98;;;11.88;;
56141;SDS011;42018;48.588;10.836;2022-08-19T13:43:25;12.82;;;11.73;;
56141;SDS011;42018;48.588;10.836;2022-08-19T13:46:11;13.52;;;12.32;;
56141;SDS011;42018;48.588;10.836;2022-08-19T13:48:58;12.75;;;11.65;;
56141;SDS011;42018;48.588;10.836;2022-08-19T13:51:44;12.65;;;11.55;;
56141;SDS011;42018;48.588;10.836;2022-08-19T13:54:30;13.40;;;12.20;;
56141;SDS011;42018;48.588;10.836;2022-08-19T13:57:15;12.35;;;11.35;;
56141;SDS011;42018;48.588;10.836;2022-08-19T14:00:01;12.43;;;11.35;;
56141;SDS011;42018;48.588;10.836;2022-08-19T14:02:49;12.55;;;11.45;;
56141;SDS011;42018;48.588;10.836;2022-08-19T14:05:36;11.70;;;10.75;;
56141;SDS011;42018;48.588;10.836;2022-08-19T14:08:22;11.43;;;10.43;;
56141;SDS011;42018;48.588;10.836;2022-08-19T14:11:08;11.43;;;10.52;;
56141;SDS011;42018;48.588;10.836;2022-08-19T14:13:54;11.35;;;10.35;;
56141;SDS011;42018;48.588;10.836;2022-08-19T14:16:39;10.98;;;10.02;;
56141;SDS011;42018;48.588;10.836;2022-08-19T14:19:25;10.20;;;9.38;;
56141;SDS011;42018;48.588;10.836;2022-08-19T14:22:10;11.65;;;10.65;;
56141;SDS011;42018;48.588;10.836;2022-08-19T14:24:56;11.32;;;10.23;;
56141;SDS011;42018;48.588;10.836;2022-08-19T14:27:42;10.50;;;9.57;;
56141;SDS011;42018;48.588;10.836;2022-08-19T14:30:29;10.32;;;9.43;;
56141;SDS011;42018;48.588;10.836;2022-08-19T14:33:16;10.00;;;9.10;;
56141;SDS011;42018;48.588;10.836;2022-08-19T14:36:02;10.23;;;9.30;;
56141;SDS011;42018;48.588;10.836;2022-08-19T14:38:48;9.23;;;8.43;;
56141;SDS011;42018;48.588;10.836;2022-08-19T14:41:33;8.50;;;7.80;;
56141;SDS011;42018;48.588;10.836;2022-08-19T14:44:19;8.98;;;8.18;;
56141;SDS011;42018;48.588;10.836;2022-08-19T14:47:04;8.30;;;7.50;;
56141;SDS011;42018;48.588;10.836;2022-08-19T14:49:52;7.60;;;6.90;;
56141;SDS011;42018;48.588;10.836;2022-08-19T14:52:38;7.30;;;6.60;;
56141;SDS011;42018;48.588;10.836;2022-08-19T14:55:25;7.78;;;7.05;;
56141;SDS011;42018;48.588;10.836;2022-08-19T14:58:11;6.60;;;6.00;;
56141;SDS011;42018;48.588;10.836;2022-08-19T15:00:57;5.75;;;5.15;;
56141;SDS011;42018;48.588;10.836;2022-08-19T15:03:44;5.30;;;4.70;;
56141;SDS011;42018;48.588;10.836;2022-08-19T15:06:29;5.13;;;4.03;;
56141;SDS011;42018;48.588;10.836;2022-08-19T15:09:15;5.05;;;4.30;;
56141;SDS011;42018;48.588;10.836;2022-08-19T15:12:00;4.55;;;3.83;;
56141;SDS011;42018;48.588;10.836;2022-08-19T15:14:46;4.47;;;3.55;;
56141;SDS011;42018;48.588;10.836;2022-08-19T15:17:35;5.25;;;3.55;;
56141;SDS011;42018;48.588;10.836;2022-08-19T15:20:22;4.85;;;3.70;;
56141;SDS011;42018;48.588;10.836;2022-08-19T15:23:07;4.97;;;3.58;;
56141;SDS011;42018;48.588;10.836;2022-08-19T15:25:53;4.50;;;3.35;;
56141;SDS011;42018;48.588;10.836;2022-08-19T15:28:40;4.50;;;3.28;;
56141;SDS011;42018;48.588;10.836;2022-08-19T15:31:26;4.25;;;3.17;;
56141;SDS011;42018;48.588;10.836;2022-08-19T15:34:12;4.32;;;3.45;;
56141;SDS011;42018;48.588;10.836;2022-08-19T15:36:58;4.00;;;3.35;;
56141;SDS011;42018;48.588;10.836;2022-08-19T15:39:44;4.28;;;3.15;;
56141;SDS011;42018;48.588;10.836;2022-08-19T15:42:30;3.95;;;2.90;;
56141;SDS011;42018;48.588;10.836;2022-08-19T15:45:17;3.83;;;2.80;;
56141;SDS011;42018;48.588;10.836;2022-08-19T15:48:04;3.92;;;2.60;;
56141;SDS011;42018;48.588;10.836;2022-08-19T15:50:50;4.00;;;3.00;;
56141;SDS011;42018;48.588;10.836;2022-08-19T15:53:35;4.30;;;2.80;;
56141;SDS011;42018;48.588;10.836;2022-08-19T15:56:21;4.10;;;2.95;;
56141;SDS011;42018;48.588;10.836;2022-08-19T15:59:07;4.68;;;3.70;;
56141;SDS011;42018;48.588;10.836;2022-08-19T16:02:11;8.27;;;3.83;;
56141;SDS011;42018;48.588;10.836;2022-08-19T16:05:16;4.63;;;3.72;;
56141;SDS011;42018;48.588;10.836;2022-08-19T16:08:24;4.80;;;4.22;;
56141;SDS011;42018;48.588;10.836;2022-08-19T16:11:10;5.15;;;3.92;;
56141;SDS011;42018;48.588;10.836;2022-08-19T16:13:57;4.40;;;3.50;;
56141;SDS011;42018;48.588;10.836;2022-08-19T16:16:43;4.70;;;3.60;;
56141;SDS011;42018;48.588;10.836;2022-08-19T16:19:30;4.15;;;3.10;;
56141;SDS011;42018;48.588;10.836;2022-08-19T16:22:17;4.05;;;2.90;;
56141;SDS011;42018;48.588;10.836;2022-08-19T16:25:02;4.10;;;2.80;;
56141;SDS011;42018;48.588;10.836;2022-08-19T16:27:48;5.07;;;3.00;;